Time;durP1;ratioP1;P1;durP2;ratioP2;P2;SDS_P1;SDS_P2;PMS_P1;PMS_P2;Temp;Humidity;BMP_temperature;BMP_pressure;BME280_temperature;BME280_humidity;BME280_pressure;Samples;Min_cycle;Max_cycle;Signal;HPM_P1;HPM_P2
2021/01/18 00:02:19;;;;;;;;;;;;;;;-8.76;67.87;98691.11;1739065;81;22128;-88
2021/01/18 00:05:05;;;;;;;;;;;;;;;-8.71;67.87;98689.05;1742959;81;26144;-88
2021/01/18 00:07:56;;;;;;;;;;;;;;;-8.70;67.87;98689.91;1732436;82;24573;-89
2021/01/18 00:10:42;;;;;;;;;;;;;;;-8.72;67.86;98681.42;1732276;82;20283;-88
2021/01/18 00:13:28;;;;;;;;;;;;;;;-8.84;67.82;98683.45;1730449;82;24645;-89
2021/01/18 00:16:14;;;;;;;;;;;;;;;-8.93;67.77;98670.65;1738745;81;22384;-88
2021/01/18 00:19:00;;;;;;;;;;;;;;;-8.99;67.70;98674.37;1727481;82;26124;-88
2021/01/18 00:21:46;;;;;;;;;;;;;;;-9.11;67.64;98672.55;1727620;82;24822;-88
2021/01/18 00:24:32;;;;;;;;;;;;;;;-9.28;67.57;98674.06;1736257;82;20275;-89
2021/01/18 00:27:18;;;;;;;;;;;;;;;-9.38;67.47;98674.34;1735347;82;24709;-88
2021/01/18 00:30:05;;;;;;;;;;;;;;;-9.60;67.37;98671.09;1734880;82;22120;-88
2021/01/18 00:32:52;;;;;;;;;;;;;;;-9.77;67.28;98667.52;1722556;82;26127;-88
2021/01/18 00:35:38;;;;;;;;;;;;;;;-9.89;67.18;98681.25;1717846;83;25482;-88
2021/01/18 00:38:26;;;;;;;;;;;;;;;-10.06;67.08;98682.27;1722269;83;20397;-88
2021/01/18 00:41:12;;;;;;;;;;;;;;;-10.13;66.98;98675.81;1754317;80;25858;-88
2021/01/18 00:43:59;;;;;;;;;;;;;;;-10.24;66.91;98677.80;1747254;80;21930;-88
2021/01/18 00:46:45;;;;;;;;;;;;;;;-10.33;66.84;98682.72;1748239;80;26189;-87
2021/01/18 00:49:38;;;;;;;;;;;;;;;-10.51;66.77;98679.02;1720969;81;24607;-89
2021/01/18 00:52:23;;;;;;;;;;;;;;;-10.62;66.69;98680.96;1720334;83;20552;-88
2021/01/18 00:55:18;;;;;;;;;;;;;;;-10.74;66.61;98679.88;1718038;82;20876;-87
2021/01/18 00:58:04;;;;;;;;;;;;;;;-10.85;66.52;98679.70;1750029;80;22174;-88
2021/01/18 01:00:50;;;;;;;;;;;;;;;-10.97;66.45;98677.38;1719693;83;27174;-87
2021/01/18 01:03:37;;;;;;;;;;;;;;;-11.16;66.37;98680.80;1722700;80;24797;-88
2021/01/18 01:06:23;;;;;;;;;;;;;;;-11.35;66.29;98681.28;1759523;80;20379;-88
2021/01/18 01:09:10;;;;;;;;;;;;;;;-11.45;66.22;98678.95;1753087;80;24693;-87
2021/01/18 01:11:56;;;;;;;;;;;;;;;-11.51;66.14;98680.53;1756238;80;22173;-88
2021/01/18 01:14:44;;;;;;;;;;;;;;;-11.61;66.08;98680.72;1758313;80;27027;-88
2021/01/18 01:17:30;;;;;;;;;;;;;;;-11.62;66.03;98688.28;1760686;80;25369;-88
2021/01/18 01:20:16;;;;;;;;;;;;;;;-11.68;65.99;98683.95;1748338;80;20518;-86
2021/01/18 01:23:03;;;;;;;;;;;;;;;-11.66;65.96;98682.30;1753542;80;24696;-87
2021/01/18 01:25:50;;;;;;;;;;;;;;;-11.63;65.93;98686.16;1753546;80;22164;-87
2021/01/18 01:28:36;;;;;;;;;;;;;;;-11.71;65.91;98682.61;1753804;80;27034;-87
2021/01/18 01:31:22;;;;;;;;;;;;;;;-11.75;65.89;98685.93;1756600;80;24661;-87
2021/01/18 01:33:57;;;;;;;;;;;;;;;-11.75;65.87;98677.09;1750746;80;20598;-86
2021/01/18 01:36:43;;;;;;;;;;;;;;;-11.70;65.87;98672.97;1750971;80;24687;-86
2021/01/18 01:39:29;;;;;;;;;;;;;;;-11.80;65.83;98681.60;1757535;80;23013;-87
2021/01/18 01:42:19;;;;;;;;;;;;;;;-11.96;65.83;98676.23;1755465;80;26587;-86
2021/01/18 01:45:05;;;;;;;;;;;;;;;-11.99;65.80;98671.50;1746942;80;25461;-86
2021/01/18 01:47:51;;;;;;;;;;;;;;;-12.10;65.79;98652.75;1767963;80;20270;-86
2021/01/18 01:50:37;;;;;;;;;;;;;;;-11.95;65.81;98671.62;1753680;80;24807;-87
2021/01/18 01:53:23;;;;;;;;;;;;;;;-11.97;65.78;98670.73;1747664;80;22148;-86
2021/01/18 01:56:11;;;;;;;;;;;;;;;-12.16;65.75;98681.20;1762526;80;26181;-86
2021/01/18 01:58:57;;;;;;;;;;;;;;;-12.44;65.67;98674.69;1743520;80;24549;-86
2021/01/18 02:01:43;;;;;;;;;;;;;;;-12.64;65.55;98675.84;1742406;80;20479;-87
2021/01/18 02:04:30;;;;;;;;;;;;;;;-12.76;65.47;98677.64;1715639;82;24757;-88
2021/01/18 02:07:16;;;;;;;;;;;;;;;-12.75;65.42;98674.72;1718076;82;22278;-88
2021/01/18 02:10:02;;;;;;;;;;;;;;;-12.80;65.37;98683.83;1722614;83;26210;-88
2021/01/18 02:12:48;;;;;;;;;;;;;;;-12.75;65.36;98676.84;1756357;80;24687;-88
2021/01/18 02:15:35;;;;;;;;;;;;;;;-12.68;65.35;98678.25;1772524;79;20317;-88
2021/01/18 02:18:21;;;;;;;;;;;;;;;-12.69;65.34;98677.80;1759959;80;24133;-87
2021/01/18 02:21:09;;;;;;;;;;;;;;;-12.76;65.34;98675.53;1717476;81;22231;-87
2021/01/18 02:23:55;;;;;;;;;;;;;;;-12.80;65.31;98676.27;1708018;83;26175;-87
2021/01/18 02:26:41;;;;;;;;;;;;;;;-12.75;65.31;98670.54;1709174;83;24599;-87
2021/01/18 02:29:28;;;;;;;;;;;;;;;-12.62;65.33;98672.97;1720703;83;20311;-83
2021/01/18 02:32:14;;;;;;;;;;;;;;;-12.54;65.35;98673.98;1718911;83;24756;-84
2021/01/18 02:35:00;;;;;;;;;;;;;;;-12.69;65.35;98671.09;1718820;82;22149;-83
2021/01/18 02:37:47;;;;;;;;;;;;;;;-12.89;65.32;98675.65;1736262;82;26123;-83
2021/01/18 02:40:33;;;;;;;;;;;;;;;-13.03;65.32;98672.30;1712608;82;25615;-87
2021/01/18 02:43:19;;;;;;;;;;;;;;;-13.18;65.29;98667.75;1719930;82;20423;-87
2021/01/18 02:46:05;;;;;;;;;;;;;;;-13.32;65.24;98672.83;1768292;79;24671;-87
2021/01/18 02:48:51;;;;;;;;;;;;;;;-13.22;65.25;98664.31;1766030;79;22191;-86
2021/01/18 02:51:39;;;;;;;;;;;;;;;-13.02;65.26;98661.02;1763023;79;27030;-83
2021/01/18 02:54:26;;;;;;;;;;;;;;;-12.96;65.26;98657.80;1772970;79;24591;-84
2021/01/18 02:57:13;;;;;;;;;;;;;;;-12.88;65.30;98647.13;1767630;79;20173;-84
2021/01/18 02:59:59;;;;;;;;;;;;;;;-12.86;65.30;98653.45;1746659;79;24798;-83
2021/01/18 03:02:46;;;;;;;;;;;;;;;-12.72;65.33;98651.73;1772169;79;22349;-88
2021/01/18 03:05:32;;;;;;;;;;;;;;;-12.66;65.37;98651.04;1775736;79;26118;-88
2021/01/18 03:08:18;;;;;;;;;;;;;;;-12.60;65.37;98642.77;1729888;82;24591;-88
2021/01/18 03:11:07;;;;;;;;;;;;;;;-12.60;65.39;98651.59;1723769;82;20630;-87
2021/01/18 03:13:52;;;;;;;;;;;;;;;-12.71;65.38;98647.55;1725795;82;24760;-87
2021/01/18 03:16:38;;;;;;;;;;;;;;;-12.63;65.40;98654.02;1735634;82;22115;-87
2021/01/18 03:19:25;;;;;;;;;;;;;;;-12.75;65.39;98648.27;1723922;81;25351;-87
2021/01/18 03:22:11;;;;;;;;;;;;;;;-13.00;65.32;98645.55;1722133;82;25509;-88
2021/01/18 03:24:57;;;;;;;;;;;;;;;-13.17;65.28;98643.89;1729128;82;20302;-88
2021/01/18 03:27:43;;;;;;;;;;;;;;;-12.97;65.25;98648.54;1715340;82;24692;-88
2021/01/18 03:30:29;;;;;;;;;;;;;;;-13.01;65.21;98650.55;1721850;82;22209;-88
2021/01/18 03:33:15;;;;;;;;;;;;;;;-13.08;65.20;98644.89;1744209;79;26118;-89
2021/01/18 03:36:03;;;;;;;;;;;;;;;-13.23;65.17;98647.91;1769283;79;24569;-89
2021/01/18 03:38:48;;;;;;;;;;;;;;;-13.13;65.17;98652.77;1771667;79;20447;-89
2021/01/18 03:41:35;;;;;;;;;;;;;;;-13.34;65.11;98637.55;1779675;79;24711;-89
2021/01/18 03:44:21;;;;;;;;;;;;;;;-13.24;65.08;98644.93;1762927;79;22165;-89
2021/01/18 03:47:07;;;;;;;;;;;;;;;-13.05;65.09;98644.58;1769348;79;26138;-89
2021/01/18 03:49:53;;;;;;;;;;;;;;;-13.05;65.06;98641.21;1763484;79;24594;-89
2021/01/18 03:52:39;;;;;;;;;;;;;;;-13.13;65.04;98639.77;1775849;79;20265;-89
2021/01/18 03:55:25;;;;;;;;;;;;;;;-13.19;65.00;98639.61;1783389;79;24743;-89
2021/01/18 03:58:12;;;;;;;;;;;;;;;-13.25;64.96;98632.75;1742310;80;22990;-84
2021/01/18 04:00:57;;;;;;;;;;;;;;;-13.29;64.91;98627.19;1698242;82;26141;-83
2021/01/18 04:03:44;;;;;;;;;;;;;;;-13.25;64.91;98623.08;1710824;82;25063;-83
2021/01/18 04:06:30;;;;;;;;;;;;;;;-13.26;64.90;98627.70;1737162;81;20239;-84
2021/01/18 04:09:16;;;;;;;;;;;;;;;-13.38;64.88;98630.73;1737711;81;24509;-84
2021/01/18 04:12:03;;;;;;;;;;;;;;;-13.48;64.86;98625.41;1743775;81;22225;-84
2021/01/18 04:14:50;;;;;;;;;;;;;;;-13.62;64.84;98637.59;1741321;81;26289;-84
2021/01/18 04:17:24;;;;;;;;;;;;;;;-13.55;64.83;98629.82;1742994;81;25836;-84
2021/01/18 04:20:10;;;;;;;;;;;;;;;-13.42;64.84;98628.09;1736147;81;20553;-84
2021/01/18 04:22:56;;;;;;;;;;;;;;;-13.46;64.82;98620.00;1740797;81;25616;-85
2021/01/18 04:25:43;;;;;;;;;;;;;;;-13.41;64.84;98619.31;1742702;81;22312;-84
2021/01/18 04:28:29;;;;;;;;;;;;;;;-13.31;64.85;98617.48;1744152;81;26976;-84
2021/01/18 04:31:15;;;;;;;;;;;;;;;-13.28;64.86;98612.95;1742308;81;24536;-84
2021/01/18 04:34:01;;;;;;;;;;;;;;;-13.25;64.88;98624.34;1736976;81;20215;-84
2021/01/18 04:36:48;;;;;;;;;;;;;;;-13.32;64.86;98612.42;1731955;82;24890;-90
2021/01/18 04:39:37;;;;;;;;;;;;;;;-13.42;64.86;98607.97;1713499;83;22203;-89
2021/01/18 04:42:22;;;;;;;;;;;;;;;-13.43;64.84;98618.84;1720600;82;26164;-87
2021/01/18 04:48:20;;;;;;;;;;;;;;;-13.48;64.83;98616.61;1750138;79;20477;-86
2021/01/18 04:51:06;;;;;;;;;;;;;;;-13.54;64.82;98618.55;1769137;79;24772;-88
2021/01/18 04:53:52;;;;;;;;;;;;;;;-13.51;64.81;98613.59;1760609;79;22021;-87
2021/01/18 04:56:38;;;;;;;;;;;;;;;-13.44;64.82;98612.95;1765698;79;26840;-87
2021/01/18 04:59:26;;;;;;;;;;;;;;;-13.28;64.83;98612.55;1764527;79;24620;-88
2021/01/18 05:02:16;;;;;;;;;;;;;;;-13.24;64.84;98617.24;1771127;79;20201;-87
2021/01/18 05:05:02;;;;;;;;;;;;;;;-13.30;64.82;98615.41;1782805;79;25565;-87
2021/01/18 05:07:48;;;;;;;;;;;;;;;-13.17;64.83;98615.34;1770504;79;22153;-87
2021/01/18 05:10:34;;;;;;;;;;;;;;;-13.01;64.86;98614.03;1763696;79;26121;-87
2021/01/18 05:13:21;;;;;;;;;;;;;;;-12.86;64.89;98615.26;1763337;79;25694;-87
2021/01/18 05:16:07;;;;;;;;;;;;;;;-12.77;64.90;98619.28;1772296;78;20499;-87
2021/01/18 05:18:54;;;;;;;;;;;;;;;-12.83;64.91;98614.50;1761311;79;23775;-88
2021/01/18 05:21:40;;;;;;;;;;;;;;;-12.87;64.92;98621.54;1766528;79;22345;-88
2021/01/18 05:24:26;;;;;;;;;;;;;;;-12.92;64.91;98616.77;1766592;79;27028;-88
2021/01/18 05:27:12;;;;;;;;;;;;;;;-13.02;64.88;98621.13;1767865;79;24672;-84
2021/01/18 05:29:58;;;;;;;;;;;;;;;-13.21;64.82;98619.45;1765988;79;20480;-88
2021/01/18 05:32:45;;;;;;;;;;;;;;;-13.39;64.76;98620.22;1770549;79;24746;-88
2021/01/18 05:35:31;;;;;;;;;;;;;;;-13.44;64.72;98616.73;1761864;79;21985;-87
2021/01/18 05:38:22;;;;;;;;;;;;;;;-13.51;64.69;98617.36;1764847;79;26316;-88
2021/01/18 05:41:11;;;;;;;;;;;;;;;-13.47;64.66;98613.28;1774801;79;25446;-88
2021/01/18 05:43:57;;;;;;;;;;;;;;;-13.40;64.66;98613.87;1780210;79;20515;-87
2021/01/18 05:46:44;;;;;;;;;;;;;;;-13.45;64.66;98612.50;1762141;79;24708;-88
2021/01/18 05:49:31;;;;;;;;;;;;;;;-13.53;64.64;98611.45;1761873;79;22144;-88
2021/01/18 05:52:18;;;;;;;;;;;;;;;-13.50;64.63;98613.19;1767001;79;27034;-88
2021/01/18 05:55:04;;;;;;;;;;;;;;;-13.54;64.63;98615.17;1781389;79;24820;-88
2021/01/18 05:57:51;;;;;;;;;;;;;;;-13.64;64.60;98619.11;1779651;79;20270;-83
2021/01/18 06:00:37;;;;;;;;;;;;;;;-13.63;64.58;98617.02;1747175;79;24650;-88
2021/01/18 06:03:25;;;;;;;;;;;;;;;-13.66;64.57;98620.31;1749523;80;23097;-88
2021/01/18 06:06:12;;;;;;;;;;;;;;;-13.67;64.56;98626.55;1726981;82;26216;-85
2021/01/18 06:08:58;;;;;;;;;;;;;;;-13.71;64.56;98626.03;1727906;82;24769;-83
2021/01/18 06:11:47;;;;;;;;;;;;;;;-13.74;64.55;98623.41;1728937;79;20651;-83
2021/01/18 06:14:33;;;;;;;;;;;;;;;-13.76;64.55;98623.39;1770150;79;24695;-84
2021/01/18 06:17:19;;;;;;;;;;;;;;;-13.77;64.56;98620.42;1779112;79;22332;-84
2021/01/18 06:20:05;;;;;;;;;;;;;;;-13.79;64.55;98619.52;1783972;79;26171;-83
2021/01/18 06:22:51;;;;;;;;;;;;;;;-13.89;64.55;98620.47;1748453;79;24410;-85
2021/01/18 06:25:41;;;;;;;;;;;;;;;-13.89;64.56;98625.09;1781010;79;20342;-83
2021/01/18 06:28:28;;;;;;;;;;;;;;;-13.88;64.57;98628.47;1782170;79;24654;-83
2021/01/18 06:31:15;;;;;;;;;;;;;;;-13.85;64.58;98638.63;1778034;79;21353;-84
2021/01/18 06:34:02;;;;;;;;;;;;;;;-13.88;64.58;98637.27;1751088;80;27147;-89
2021/01/18 06:36:50;;;;;;;;;;;;;;;-13.90;64.61;98638.47;1774545;79;24597;-91
2021/01/18 06:39:36;;;;;;;;;;;;;;;-13.88;64.63;98644.41;1773927;79;20445;-88
2021/01/18 06:42:23;;;;;;;;;;;;;;;-13.87;64.67;98638.98;1759734;79;24662;-88
2021/01/18 06:45:09;;;;;;;;;;;;;;;-13.87;64.71;98645.27;1748008;80;22134;-87
2021/01/18 06:47:43;;;;;;;;;;;;;;;-13.88;64.72;98637.27;1773642;79;27155;-88
2021/01/18 06:50:29;;;;;;;;;;;;;;;-13.89;64.76;98647.73;1762901;79;24999;-88
2021/01/18 06:53:15;;;;;;;;;;;;;;;-13.86;64.78;98646.98;1766997;79;20284;-88
2021/01/18 06:56:03;;;;;;;;;;;;;;;-13.82;64.81;98653.80;1742910;79;24707;-87
2021/01/18 06:58:49;;;;;;;;;;;;;;;-13.75;64.85;98651.52;1762294;79;22092;-89
2021/01/18 07:01:35;;;;;;;;;;;;;;;-13.71;64.90;98647.41;1770396;79;26115;-88
2021/01/18 07:04:21;;;;;;;;;;;;;;;-13.65;64.93;98651.36;1765069;79;24653;-88
2021/01/18 07:07:08;;;;;;;;;;;;;;;-13.62;64.97;98652.69;1769675;79;20361;-89
2021/01/18 07:09:54;;;;;;;;;;;;;;;-13.64;65.03;98652.67;1771236;79;24783;-83
2021/01/18 07:12:40;;;;;;;;;;;;;;;-13.71;65.05;98662.50;1766143;79;23074;-83
2021/01/18 07:15:26;;;;;;;;;;;;;;;-13.73;65.06;98661.59;1768780;79;26220;-84
2021/01/18 07:18:12;;;;;;;;;;;;;;;-13.72;65.07;98664.16;1767896;79;24617;-86
2021/01/18 07:20:58;;;;;;;;;;;;;;;-13.63;65.12;98650.98;1766240;79;20266;-86
2021/01/18 07:23:45;;;;;;;;;;;;;;;-13.56;65.16;98651.61;1771267;79;25603;-87
2021/01/18 07:26:32;;;;;;;;;;;;;;;-13.50;65.20;98653.44;1771030;79;22113;-87
2021/01/18 07:29:18;;;;;;;;;;;;;;;-13.43;65.26;98661.22;1776976;79;26316;-88
2021/01/18 07:32:04;;;;;;;;;;;;;;;-13.40;65.31;98663.80;1774397;79;24613;-87
2021/01/18 07:34:51;;;;;;;;;;;;;;;-13.34;65.36;98665.23;1763759;79;20598;-87
2021/01/18 07:37:37;;;;;;;;;;;;;;;-13.25;65.44;98666.73;1767963;79;25607;-87
2021/01/18 07:43:00;;;;;;;;;;;;;;;-13.04;65.54;98676.92;1757519;79;26143;-86
2021/01/18 07:45:46;;;;;;;;;;;;;;;-12.98;65.62;98675.82;1766028;79;24658;-87
2021/01/18 07:48:32;;;;;;;;;;;;;;;-12.93;65.68;98676.80;1771095;79;20200;-87
2021/01/18 07:51:19;;;;;;;;;;;;;;;-12.87;65.74;98670.22;1773125;79;23924;-87
2021/01/18 07:54:05;;;;;;;;;;;;;;;-12.80;65.81;98675.87;1760337;79;22047;-87
2021/01/18 07:56:50;;;;;;;;;;;;;;;-12.74;65.86;98673.52;1764751;79;26123;-88
2021/01/18 07:59:37;;;;;;;;;;;;;;;-12.69;65.92;98676.55;1764536;79;24754;-87
2021/01/18 08:02:22;;;;;;;;;;;;;;;-12.63;65.98;98676.30;1767050;79;20581;-87
2021/01/18 08:05:09;;;;;;;;;;;;;;;-12.54;66.04;98680.30;1760413;79;24646;-87
2021/01/18 08:07:55;;;;;;;;;;;;;;;-12.46;66.11;98680.09;1769014;79;21646;-86
2021/01/18 08:10:42;;;;;;;;;;;;;;;-12.37;66.18;98675.26;1750513;80;26321;-88
2021/01/18 08:13:29;;;;;;;;;;;;;;;-12.31;66.22;98676.66;1760168;79;24766;-87
2021/01/18 08:16:16;;;;;;;;;;;;;;;-12.27;66.30;98682.63;1772092;79;20547;-87
2021/01/18 08:19:06;;;;;;;;;;;;;;;-12.23;66.34;98684.83;1765307;79;25605;-87
2021/01/18 08:21:52;;;;;;;;;;;;;;;-12.21;66.40;98678.98;1761244;79;22317;-87
2021/01/18 08:24:38;;;;;;;;;;;;;;;-12.14;66.43;98676.20;1753147;79;26216;-87
2021/01/18 08:27:25;;;;;;;;;;;;;;;-12.06;66.49;98681.03;1769609;79;24555;-87
2021/01/18 08:30:10;;;;;;;;;;;;;;;-11.98;66.55;98681.63;1765618;79;20359;-84
2021/01/18 08:32:48;;;;;;;;;;;;;;;-11.89;66.62;98683.53;1761122;79;25607;-87
2021/01/18 08:35:35;;;;;;;;;;;;;;;-11.81;66.67;98682.01;1771033;79;22356;-87
2021/01/18 08:38:21;;;;;;;;;;;;;;;-11.73;66.74;98684.30;1765156;79;26125;-85
2021/01/18 08:41:08;;;;;;;;;;;;;;;-11.63;66.80;98680.27;1769921;79;24617;-85
2021/01/18 08:43:54;;;;;;;;;;;;;;;-11.54;66.87;98688.02;1768748;79;20256;-87
2021/01/18 08:46:42;;;;;;;;;;;;;;;-11.47;66.92;98691.13;1758033;79;24774;-84
2021/01/18 08:49:31;;;;;;;;;;;;;;;-11.38;66.99;98684.98;1757574;79;22290;-84
2021/01/18 08:52:19;;;;;;;;;;;;;;;-11.30;67.06;98680.96;1776344;79;26117;-85
2021/01/18 08:55:05;;;;;;;;;;;;;;;-11.19;67.14;98682.44;1768509;79;24565;-84
2021/01/18 08:57:53;;;;;;;;;;;;;;;-11.10;67.19;98685.13;1771319;79;20524;-84
2021/01/18 09:00:39;;;;;;;;;;;;;;;-10.97;67.25;98682.43;1748966;79;24757;-87
2021/01/18 09:03:25;;;;;;;;;;;;;;;-10.93;67.33;98667.34;1709372;80;21946;-88
2021/01/18 09:06:11;;;;;;;;;;;;;;;-10.72;67.39;98678.25;1766125;79;26122;-88
2021/01/18 09:08:59;;;;;;;;;;;;;;;-10.60;67.47;98680.59;1763755;79;23972;-88
2021/01/18 09:11:45;;;;;;;;;;;;;;;-10.51;67.55;98676.09;1767303;79;20465;-88
2021/01/18 09:14:30;;;;;;;;;;;;;;;-10.42;67.61;98676.27;1760017;79;25515;-88
2021/01/18 09:17:17;;;;;;;;;;;;;;;-10.32;67.66;98673.05;1722136;83;22060;-87
2021/01/18 09:20:12;;;;;;;;;;;;;;;-10.21;67.73;98674.07;1743429;80;26190;-87
2021/01/18 09:22:57;;;;;;;;;;;;;;;-10.09;67.78;98675.05;1765943;79;24666;-88
2021/01/18 09:25:43;;;;;;;;;;;;;;;-9.98;67.86;98666.77;1752911;79;20276;-85
2021/01/18 09:28:30;;;;;;;;;;;;;;;-9.85;67.91;98673.72;1767019;79;25529;-88
2021/01/18 09:31:16;;;;;;;;;;;;;;;-9.78;67.97;98665.80;1773372;79;23200;-87
2021/01/18 09:34:05;;;;;;;;;;;;;;;-9.75;68.01;98665.84;1721315;82;26140;-87
2021/01/18 09:36:51;;;;;;;;;;;;;;;-9.72;68.03;98659.98;1754343;79;24707;-88
2021/01/18 09:39:37;;;;;;;;;;;;;;;-9.67;68.06;98659.63;1766539;79;20280;-88
2021/01/18 09:42:25;;;;;;;;;;;;;;;-9.57;68.09;98650.05;1759372;79;24704;-87
2021/01/18 09:45:11;;;;;;;;;;;;;;;-9.42;68.13;98644.75;1777349;79;22162;-88
2021/01/18 09:47:57;;;;;;;;;;;;;;;-9.31;68.17;98647.00;1736222;78;26083;-87
2021/01/18 09:50:43;;;;;;;;;;;;;;;-9.22;68.21;98638.67;1733527;82;24572;-87
2021/01/18 09:53:29;;;;;;;;;;;;;;;-9.13;68.27;98636.23;1745275;81;20356;-87
2021/01/18 09:56:15;;;;;;;;;;;;;;;-9.01;68.31;98632.98;1765490;79;25617;-87
2021/01/18 09:59:03;;;;;;;;;;;;;;;-8.91;68.32;98629.28;1749754;79;23160;-88
2021/01/18 10:01:50;;;;;;;;;;;;;;;-8.82;68.38;98634.84;1771824;79;26110;-85
2021/01/18 10:04:38;;;;;;;;;;;;;;;-8.77;68.41;98630.67;1785344;79;24601;-88
2021/01/18 10:07:24;;;;;;;;;;;;;;;-8.72;68.43;98624.36;1779576;79;20305;-88
2021/01/18 10:10:10;;;;;;;;;;;;;;;-8.58;68.45;98626.63;1776938;79;25570;-87
2021/01/18 10:12:56;;;;;;;;;;;;;;;-8.45;68.49;98629.67;1779157;79;22076;-88
2021/01/18 10:15:44;;;;;;;;;;;;;;;-8.37;68.54;98626.80;1733652;81;26214;-87
2021/01/18 10:18:31;;;;;;;;;;;;;;;-8.32;68.53;98626.83;1779252;79;24598;-87
2021/01/18 10:21:18;;;;;;;;;;;;;;;-8.28;68.56;98624.28;1748374;79;20609;-87
2021/01/18 10:24:04;;;;;;;;;;;;;;;-8.15;68.58;98621.42;1785939;79;24694;-87
2021/01/18 10:26:50;;;;;;;;;;;;;;;-8.03;68.61;98624.05;1765661;79;23207;-87
2021/01/18 10:29:37;;;;;;;;;;;;;;;-7.89;68.65;98624.98;1783863;79;26118;-87
2021/01/18 10:32:23;;;;;;;;;;;;;;;-7.76;68.70;98615.33;1749418;79;24610;-88
2021/01/18 10:35:10;;;;;;;;;;;;;;;-7.63;68.74;98625.11;1774629;79;20399;-89
2021/01/18 10:37:57;;;;;;;;;;;;;;;-7.57;68.78;98625.56;1774915;79;24009;-87
2021/01/18 10:40:45;;;;;;;;;;;;;;;-7.47;68.80;98629.87;1776474;79;22206;-87
2021/01/18 10:43:37;;;;;;;;;;;;;;;-7.34;68.83;98632.46;1778011;79;26110;-87
2021/01/18 10:46:23;;;;;;;;;;;;;;;-7.24;68.85;98630.80;1770114;79;25462;-88
2021/01/18 10:49:09;;;;;;;;;;;;;;;-7.16;68.87;98635.50;1760151;80;20342;-88
2021/01/18 10:51:58;;;;;;;;;;;;;;;-7.09;68.89;98638.47;1744880;81;25701;-88
2021/01/18 10:54:44;;;;;;;;;;;;;;;-6.96;68.91;98627.50;1726214;82;22265;-88
2021/01/18 10:57:30;;;;;;;;;;;;;;;-6.83;68.95;98628.38;1719136;82;26092;-85
2021/01/18 11:00:16;;;;;;;;;;;;;;;-6.77;68.97;98630.94;1718749;82;25420;-86
2021/01/18 11:03:03;;;;;;;;;;;;;;;-6.65;69.01;98625.00;1724931;80;20450;-85
2021/01/18 11:05:49;;;;;;;;;;;;;;;-6.57;69.02;98615.27;1759041;79;24671;-85
2021/01/18 11:08:23;;;;;;;;;;;;;;;-6.46;69.04;98621.22;1768362;79;22204;-88
2021/01/18 11:11:13;;;;;;;;;;;;;;;-6.38;69.06;98616.11;1765939;79;27104;-88
2021/01/18 11:14:01;;;;;;;;;;;;;;;-6.30;69.06;98617.39;1762469;79;25604;-88
2021/01/18 11:16:46;;;;;;;;;;;;;;;-6.24;69.08;98616.13;1775627;79;20229;-87
2021/01/18 11:19:33;;;;;;;;;;;;;;;-6.22;69.09;98611.47;1772155;79;24699;-89
2021/01/18 11:22:18;;;;;;;;;;;;;;;-6.21;69.06;98612.28;1764363;79;22366;-87
2021/01/18 11:25:04;;;;;;;;;;;;;;;-6.19;69.06;98599.14;1762648;79;27142;-87
2021/01/18 11:27:50;;;;;;;;;;;;;;;-6.13;69.05;98597.86;1767219;79;24575;-89
2021/01/18 11:30:40;;;;;;;;;;;;;;;-6.04;69.04;98597.41;1774020;79;20272;-89
2021/01/18 11:33:25;;;;;;;;;;;;;;;-5.94;69.05;98588.05;1779922;79;24656;-88
2021/01/18 11:36:11;;;;;;;;;;;;;;;-5.83;69.05;98586.72;1760463;80;21467;-89
2021/01/18 11:38:58;;;;;;;;;;;;;;;-5.73;69.08;98589.27;1765721;79;27184;-89
2021/01/18 11:41:44;;;;;;;;;;;;;;;-5.69;69.07;98592.22;1781274;79;24760;-87
2021/01/18 11:44:29;;;;;;;;;;;;;;;-5.71;69.04;98586.27;1769175;79;20332;-88
2021/01/18 11:47:04;;;;;;;;;;;;;;;-5.68;69.02;98579.91;1759858;79;25779;-87
2021/01/18 11:49:51;;;;;;;;;;;;;;;-5.71;68.99;98574.80;1765833;79;22167;-88
2021/01/18 11:52:37;;;;;;;;;;;;;;;-5.73;68.96;98575.25;1775188;79;26212;-88
2021/01/18 11:55:26;;;;;;;;;;;;;;;-5.79;68.91;98577.81;1767339;79;25515;-88
2021/01/18 11:58:12;;;;;;;;;;;;;;;-5.80;68.86;98583.75;1764387;79;20263;-88
2021/01/18 12:00:59;;;;;;;;;;;;;;;-5.78;68.79;98574.39;1767061;79;24770;-88
2021/01/18 12:03:45;;;;;;;;;;;;;;;-5.75;68.78;98577.36;1767331;79;22546;-87
2021/01/18 12:06:30;;;;;;;;;;;;;;;-5.79;68.74;98569.31;1775194;79;26314;-88
2021/01/18 12:09:16;;;;;;;;;;;;;;;-5.87;68.69;98570.63;1772947;79;24611;-88
2021/01/18 12:12:02;;;;;;;;;;;;;;;-5.86;68.63;98565.93;1768315;79;20367;-88
2021/01/18 12:14:48;;;;;;;;;;;;;;;-5.89;68.61;98564.68;1768202;79;24755;-89
2021/01/18 12:17:35;;;;;;;;;;;;;;;-5.86;68.59;98558.29;1761102;79;22994;-89
2021/01/18 12:20:22;;;;;;;;;;;;;;;-5.82;68.55;98560.39;1767727;79;26324;-89
2021/01/18 12:23:08;;;;;;;;;;;;;;;-5.84;68.52;98561.69;1722825;81;24423;-88
2021/01/18 12:25:55;;;;;;;;;;;;;;;-5.87;68.48;98553.22;1776384;79;20291;-88
2021/01/18 12:28:41;;;;;;;;;;;;;;;-5.83;68.46;98559.54;1766393;78;24664;-87
2021/01/18 12:31:27;;;;;;;;;;;;;;;-5.74;68.45;98558.69;1768477;79;22969;-85
2021/01/18 12:34:14;;;;;;;;;;;;;;;-5.69;68.44;98551.86;1771800;79;26138;-87
2021/01/18 12:37:03;;;;;;;;;;;;;;;-5.64;68.45;98556.52;1777075;79;25516;-88
2021/01/18 12:39:51;;;;;;;;;;;;;;;-5.56;68.45;98550.95;1744226;79;20347;-88
2021/01/18 12:42:37;;;;;;;;;;;;;;;-5.50;68.46;98553.47;1769735;79;24641;-88
2021/01/18 12:45:24;;;;;;;;;;;;;;;-5.42;68.46;98549.62;1727876;82;22219;-88
2021/01/18 12:48:10;;;;;;;;;;;;;;;-5.28;68.48;98546.56;1730568;82;26198;-85
2021/01/18 12:50:57;;;;;;;;;;;;;;;-5.17;68.50;98542.25;1729841;82;24593;-85
2021/01/18 12:53:43;;;;;;;;;;;;;;;-5.08;68.52;98544.77;1733091;81;20271;-84
2021/01/18 12:56:29;;;;;;;;;;;;;;;-4.94;68.54;98537.86;1715433;82;23640;-85
2021/01/18 12:59:15;;;;;;;;;;;;;;;-4.80;68.57;98535.23;1730105;82;22238;-84
2021/01/18 13:02:13;;;;;;;;;;;;;;;-4.72;68.62;98535.58;1730509;82;26096;-88
2021/01/18 13:04:59;;;;;;;;;;;;;;;-4.69;68.63;98533.45;1729276;82;24680;-84
2021/01/18 13:07:47;;;;;;;;;;;;;;;-4.54;68.65;98528.20;1725846;82;20290;-88
2021/01/18 13:10:33;;;;;;;;;;;;;;;-4.41;68.68;98525.09;1730199;82;24689;-89
2021/01/18 13:13:23;;;;;;;;;;;;;;;-4.35;68.67;98519.94;1731589;82;22205;-89
2021/01/18 13:16:09;;;;;;;;;;;;;;;-4.43;68.66;98523.86;1730487;82;26913;-87
2021/01/18 13:19:02;;;;;;;;;;;;;;;-4.47;68.65;98530.28;1724602;82;24716;-86
2021/01/18 13:21:52;;;;;;;;;;;;;;;-4.49;68.59;98521.78;1730742;82;20287;-88
2021/01/18 13:24:39;;;;;;;;;;;;;;;-4.56;68.53;98525.23;1731835;82;24702;-88
2021/01/18 13:27:24;;;;;;;;;;;;;;;-4.61;68.44;98521.87;1729298;82;22292;-87
2021/01/18 13:30:11;;;;;;;;;;;;;;;-4.57;68.38;98520.55;1730077;82;26128;-85
2021/01/18 13:32:58;;;;;;;;;;;;;;;-4.55;68.36;98513.74;1699533;82;24345;-88
2021/01/18 13:35:44;;;;;;;;;;;;;;;-4.50;68.34;98508.16;1730632;82;20317;-87
2021/01/18 13:38:30;;;;;;;;;;;;;;;-4.47;68.30;98511.95;1731166;82;24644;-88
2021/01/18 13:41:15;;;;;;;;;;;;;;;-4.48;68.27;98511.56;1727052;82;22131;-88
2021/01/18 13:44:03;;;;;;;;;;;;;;;-4.47;68.24;98511.95;1724221;82;26047;-87
2021/01/18 13:46:38;;;;;;;;;;;;;;;-4.48;68.19;98511.56;1730299;82;25453;-88
2021/01/18 13:49:26;;;;;;;;;;;;;;;-4.64;68.15;98516.38;1734747;80;20270;-86
2021/01/18 13:52:14;;;;;;;;;;;;;;;-4.73;68.08;98521.11;1749237;80;25745;-87
2021/01/18 13:54:59;;;;;;;;;;;;;;;-4.74;67.99;98510.48;1750210;80;22324;-89
2021/01/18 13:57:45;;;;;;;;;;;;;;;-4.77;67.94;98502.86;1748163;80;26176;-89
2021/01/18 14:00:31;;;;;;;;;;;;;;;-4.71;67.89;98508.34;1765107;79;24659;-88
2021/01/18 14:03:17;;;;;;;;;;;;;;;-4.76;67.88;98510.94;1778675;78;20175;-85
2021/01/18 14:06:04;;;;;;;;;;;;;;;-4.68;67.88;98510.44;1762375;79;25552;-87
2021/01/18 14:08:50;;;;;;;;;;;;;;;-4.62;67.87;98514.64;1772219;79;22067;-87
2021/01/18 14:11:37;;;;;;;;;;;;;;;-4.56;67.87;98517.58;1710613;82;26236;-87
2021/01/18 14:14:23;;;;;;;;;;;;;;;-4.49;67.86;98511.56;1729891;82;25548;-88
2021/01/18 14:17:09;;;;;;;;;;;;;;;-4.50;67.86;98509.44;1731757;82;20302;-88
2021/01/18 14:19:56;;;;;;;;;;;;;;;-4.55;67.83;98516.72;1729259;82;24816;-89
2021/01/18 14:22:42;;;;;;;;;;;;;;;-4.56;67.80;98516.30;1728176;82;22328;-88
2021/01/18 14:25:16;;;;;;;;;;;;;;;-4.61;67.74;98520.60;1731336;82;26259;-89